createdAt,value
2018-03-26T00:01:02.160Z,77.9
2018-03-26T00:11:02.983Z,73.3
2018-03-26T00:21:02.912Z,83.1
2018-03-26T00:31:02.735Z,77.7
2018-03-26T00:41:02.522Z,73.8
2018-03-26T00:51:02.317Z,80.0
2018-03-26T01:01:03.085Z,83.1
2018-03-26T01:11:02.883Z,86.8
2018-03-26T01:21:02.813Z,86.0
2018-03-26T01:31:02.617Z,92.2
2018-03-26T01:41:02.427Z,98.9
2018-03-26T01:51:02.236Z,108.8
2018-03-26T02:01:03.037Z,118.6
2018-03-26T02:11:02.834Z,105.8
2018-03-26T02:21:02.806Z,96.6
2018-03-26T02:31:02.731Z,90.4
2018-03-26T02:41:02.545Z,89.2
2018-03-26T02:51:02.356Z,92.4
2018-03-26T03:01:03.227Z,91.2
2018-03-26T03:11:03.010Z,90.1
2018-03-26T03:21:02.905Z,83.5
2018-03-26T03:31:02.674Z,81.1
2018-03-26T03:41:02.482Z,85.0
2018-03-26T03:51:02.486Z,91.9
2018-03-26T04:01:02.253Z,89.3
2018-03-26T04:11:03.042Z,92.3
2018-03-26T04:21:02.977Z,94.0
2018-03-26T04:31:02.596Z,96.5
2018-03-26T04:41:02.462Z,99.2
2018-03-26T04:51:02.239Z,90.9
2018-03-26T05:01:03.003Z,90.6
2018-03-26T05:11:02.771Z,96.0
2018-03-26T05:21:02.713Z,94.7
2018-03-26T05:31:02.622Z,98.2
2018-03-26T05:41:02.465Z,98.1
2018-03-26T05:51:02.237Z,108.2
2018-03-26T06:01:02.943Z,98.3
2018-03-26T06:11:02.715Z,100.2
2018-03-26T06:21:02.618Z,103.5
2018-03-26T06:31:02.396Z,101.5
2018-03-26T06:41:03.156Z,103.1
2018-03-26T06:51:02.935Z,106.7
2018-03-26T07:01:02.737Z,108.5
2018-03-26T07:11:02.518Z,106.8
2018-03-26T07:21:02.483Z,83.3
2018-03-26T07:31:02.306Z,89.1
2018-03-26T07:41:03.101Z,104.7
2018-03-26T07:51:02.883Z,125.4
2018-03-26T08:01:02.640Z,130.9
2018-03-26T08:11:02.420Z,131.5
2018-03-26T08:21:02.334Z,92.2
2018-03-26T08:31:03.193Z,69.8
2018-03-26T08:41:03.006Z,47.6
2018-03-26T08:51:02.775Z,46.5
2018-03-26T09:01:02.569Z,31.3
2018-03-26T09:11:02.302Z,35.3
2018-03-26T09:21:03.201Z,29.9
2018-03-26T09:31:02.917Z,31.4
2018-03-26T09:41:02.710Z,36.9
2018-03-26T09:51:02.502Z,34.9
2018-03-26T10:01:02.325Z,30.7
2018-03-26T10:11:03.108Z,28.0
2018-03-26T10:21:03.029Z,25.4
2018-03-26T10:31:02.848Z,29.3
2018-03-26T10:41:02.639Z,27.6
2018-03-26T10:51:02.579Z,32.1
2018-03-26T11:01:02.341Z,36.1
2018-03-26T11:11:03.210Z,37.0
2018-03-26T11:21:03.158Z,33.2
2018-03-26T11:31:02.971Z,35.0
2018-03-26T11:41:02.790Z,34.9
2018-03-26T11:51:02.635Z,32.3
2018-03-26T12:01:02.493Z,31.3
2018-03-26T12:11:02.277Z,20.8
2018-03-26T12:21:03.194Z,22.6
2018-03-26T12:31:02.961Z,22.3
2018-03-26T12:41:02.773Z,20.8
2018-03-26T12:51:02.545Z,22.0
2018-03-26T13:01:02.377Z,22.2
2018-03-26T13:11:03.213Z,22.7
2018-03-26T13:21:03.200Z,22.2
2018-03-26T13:31:03.051Z,20.7
2018-03-26T13:41:02.893Z,22.3
2018-03-26T13:51:02.705Z,22.9
2018-03-26T14:01:02.553Z,25.1
2018-03-26T14:11:02.371Z,25.9
2018-03-26T14:21:02.299Z,24.5
2018-03-26T14:31:03.210Z,29.2
2018-03-26T14:41:03.035Z,29.3
2018-03-26T14:51:02.797Z,33.4
2018-03-26T15:01:02.592Z,32.0
2018-03-26T15:11:02.393Z,33.4
2018-03-26T15:21:02.342Z,35.0
2018-03-26T15:31:03.209Z,35.1
2018-03-26T15:41:03.068Z,34.5
2018-03-26T15:51:02.924Z,37.8
2018-03-26T16:01:02.744Z,42.6
2018-03-26T16:11:02.709Z,45.1
2018-03-26T16:21:02.706Z,45.9
2018-03-26T16:31:02.542Z,47.1
2018-03-26T16:41:02.329Z,58.0
2018-03-26T16:51:03.131Z,58.2
2018-03-26T17:01:02.969Z,64.3
2018-03-26T17:11:02.797Z,62.2
2018-03-26T17:21:02.750Z,55.1
2018-03-26T17:31:02.585Z,53.7
2018-03-26T17:41:02.300Z,60.7
2018-03-26T17:51:03.098Z,55.3
2018-03-26T18:01:02.960Z,59.8
2018-03-26T18:11:02.806Z,64.3
2018-03-26T18:21:02.819Z,63.5
2018-03-26T18:31:02.620Z,70.8
2018-03-26T18:41:02.453Z,69.3
2018-03-26T18:51:03.346Z,75.5
2018-03-26T19:01:03.153Z,71.4
2018-03-26T19:11:02.966Z,79.5
2018-03-26T19:21:02.855Z,76.2
2018-03-26T19:31:02.662Z,86.1
2018-03-26T19:41:02.553Z,75.6
2018-03-26T19:51:02.344Z,83.2
2018-03-26T20:01:03.193Z,94.9
2018-03-26T20:11:03.001Z,97.6
2018-03-26T20:21:02.947Z,103.3
2018-03-26T20:31:02.795Z,104.6
2018-03-26T20:41:02.664Z,103.9
2018-03-26T20:51:02.500Z,101.1
2018-03-26T21:01:03.306Z,107.6
2018-03-26T21:11:03.127Z,113.5
2018-03-26T21:21:03.099Z,105.3
2018-03-26T21:31:02.912Z,100.6
2018-03-26T21:41:02.785Z,105.0
2018-03-26T21:51:02.638Z,106.9
2018-03-26T22:01:02.531Z,108.6
2018-03-26T22:11:02.338Z,110.1
2018-03-26T22:21:03.343Z,109.5
2018-03-26T22:41:02.652Z,112.7
2018-03-26T22:51:02.501Z,118.2
2018-03-26T23:01:03.316Z,115.1
2018-03-26T23:11:03.137Z,117.2
2018-03-26T23:21:03.057Z,123.6
2018-03-26T23:31:02.880Z,117.0
2018-03-26T23:41:02.621Z,123.3
2018-03-26T23:51:02.469Z,122.7
